createdAt,value
2018-07-23T00:00:27.549Z,62.28
2018-07-23T00:01:27.540Z,61.78
2018-07-23T00:02:27.529Z,62.38
2018-07-23T00:03:27.516Z,62.58
2018-07-23T00:04:27.523Z,63.21
2018-07-23T00:05:27.495Z,63.45
2018-07-23T00:06:27.486Z,63.42
2018-07-23T00:07:27.475Z,64.04
2018-07-23T00:08:27.461Z,64.65
2018-07-23T00:09:27.450Z,64.75
2018-07-23T00:10:27.465Z,64.84
2018-07-23T00:11:27.432Z,64.98
2018-07-23T00:12:27.421Z,65.48
2018-07-23T00:13:27.407Z,65.28
2018-07-23T00:14:27.400Z,65.38
2018-07-23T00:15:27.385Z,65.68
2018-07-23T00:16:27.395Z,65.81
2018-07-23T00:17:27.364Z,65.78
2018-07-23T00:18:27.356Z,65.78
2018-07-23T00:19:27.345Z,66.31
2018-07-23T00:20:27.330Z,66.28
2018-07-23T00:21:27.324Z,66.52
2018-07-23T00:22:27.327Z,66.71
2018-07-23T00:23:27.301Z,66.91
2018-07-23T00:24:27.290Z,66.91
2018-07-23T00:25:27.277Z,67.02
2018-07-23T00:26:27.285Z,66.82
2018-07-23T00:27:27.258Z,66.82
2018-07-23T00:28:27.245Z,67.61
2018-07-23T00:29:27.250Z,66.95
2018-07-23T00:30:27.223Z,66.75
2018-07-23T00:31:27.213Z,67.55
2018-07-23T00:32:27.227Z,67.95
2018-07-23T00:33:27.193Z,67.75
2018-07-23T00:34:27.179Z,68.25
2018-07-23T00:35:27.173Z,68.38
2018-07-23T00:36:27.160Z,68.25
2018-07-23T00:37:27.150Z,68.49
2018-07-23T00:38:27.155Z,68.45
2018-07-23T00:39:27.141Z,68.18
2018-07-23T00:40:27.117Z,68.25
2018-07-23T00:41:27.107Z,68.25
2018-07-23T00:42:27.115Z,68.15
2018-07-23T00:43:27.084Z,68.35
2018-07-23T00:44:27.071Z,68.59
2018-07-23T00:45:27.061Z,68.38
2018-07-23T00:46:27.051Z,68.08
2018-07-23T00:47:27.042Z,68.18
2018-07-23T00:48:27.045Z,68.08
2018-07-23T00:49:27.018Z,69.02
2018-07-23T00:50:27.008Z,68.41
2018-07-23T00:51:26.999Z,68.32
2018-07-23T00:52:26.989Z,68.85
2018-07-23T00:53:26.997Z,68.65
2018-07-23T00:54:26.968Z,68.85
2018-07-23T00:55:26.954Z,69.25
2018-07-23T00:56:26.945Z,69.76
2018-07-23T00:57:26.932Z,69.56
2018-07-23T00:58:26.923Z,69.89
2018-07-23T00:59:26.954Z,69.69
2018-07-23T01:00:26.902Z,69.59
2018-07-23T01:01:26.891Z,69.69
2018-07-23T01:02:26.880Z,69.69
2018-07-23T01:03:26.870Z,69.45
2018-07-23T01:04:26.863Z,69.59
2018-07-23T01:05:26.863Z,69.49
2018-07-23T01:06:26.837Z,69.69
2018-07-23T01:07:26.825Z,69.79
2018-07-23T01:08:26.817Z,69.89
2018-07-23T01:09:26.816Z,69.89
2018-07-23T01:10:26.794Z,69.69
2018-07-23T01:11:26.798Z,69.79
2018-07-23T01:12:26.773Z,69.99
2018-07-23T01:13:26.762Z,70.09
2018-07-23T01:14:26.765Z,70.09
2018-07-23T01:15:26.737Z,70.09
2018-07-23T01:16:26.731Z,70.50
2018-07-23T01:17:26.720Z,69.92
2018-07-23T01:18:26.706Z,70.19
2018-07-23T01:19:26.718Z,70.39
2018-07-23T01:20:26.688Z,70.09
2018-07-23T01:21:26.679Z,70.12
2018-07-23T01:22:26.664Z,69.99
2018-07-23T01:23:26.652Z,70.09
2018-07-23T01:24:26.642Z,69.89
2018-07-23T01:25:26.648Z,69.99
2018-07-23T01:26:26.623Z,70.39
2018-07-23T01:27:26.616Z,70.29
2018-07-23T01:28:26.599Z,70.50
2018-07-23T01:29:26.601Z,70.50
2018-07-23T01:30:26.578Z,70.29
2018-07-23T01:31:26.569Z,70.39
2018-07-23T01:32:26.558Z,70.43
2018-07-23T01:33:26.561Z,70.32
2018-07-23T01:34:26.534Z,70.32
2018-07-23T01:35:26.526Z,70.43
2018-07-23T01:36:26.533Z,70.32
2018-07-23T01:37:26.504Z,70.43
2018-07-23T01:38:26.492Z,70.63
2018-07-23T01:39:26.482Z,70.43
2018-07-23T01:40:26.472Z,70.43
2018-07-23T01:41:26.460Z,70.32
2018-07-23T01:42:26.492Z,71.03
2018-07-23T01:43:26.436Z,71.06
2018-07-23T01:44:26.428Z,71.16
2018-07-23T01:45:26.415Z,71.13
2018-07-23T01:46:26.407Z,71.33
2018-07-23T01:47:26.397Z,71.03
2018-07-23T01:48:26.400Z,71.03
2018-07-23T01:49:26.373Z,70.63
2018-07-23T01:50:26.368Z,71.13
2018-07-23T01:51:26.383Z,71.13
2018-07-23T01:52:26.344Z,70.96
2018-07-23T01:53:26.332Z,71.16
2018-07-23T01:54:26.321Z,71.03
2018-07-23T01:55:26.308Z,71.06
2018-07-23T01:56:26.296Z,71.36
2018-07-23T01:57:26.323Z,70.86
2018-07-23T01:58:26.276Z,71.47
2018-07-23T01:59:26.265Z,71.26
2018-07-23T02:00:26.256Z,71.13
2018-07-23T02:01:26.246Z,71.56
2018-07-23T02:02:26.235Z,71.26
2018-07-23T02:03:26.236Z,71.23
2018-07-23T02:04:26.213Z,71.26
2018-07-23T02:05:26.200Z,71.67
2018-07-23T02:06:26.202Z,71.77
2018-07-23T02:07:26.182Z,71.06
2018-07-23T02:08:26.208Z,71.47
2018-07-23T02:09:26.159Z,71.67
2018-07-23T02:10:26.145Z,71.56
2018-07-23T02:11:26.140Z,71.67
2018-07-23T02:12:26.124Z,71.67
2018-07-23T02:13:26.115Z,71.26
2018-07-23T02:14:26.117Z,71.20
2018-07-23T02:15:26.092Z,71.97
2018-07-23T02:16:26.088Z,71.56
2018-07-23T02:17:26.090Z,71.70
2018-07-23T02:18:26.063Z,72.00
2018-07-23T02:19:26.049Z,72.00
2018-07-23T02:20:26.041Z,72.00
2018-07-23T02:21:26.028Z,71.91
2018-07-23T02:22:26.017Z,71.80
2018-07-23T02:23:26.020Z,71.91
2018-07-23T02:24:25.996Z,72.00
2018-07-23T02:25:26.000Z,72.41
2018-07-23T02:26:25.976Z,72.27
2018-07-23T02:27:25.963Z,71.91
2018-07-23T02:28:25.954Z,72.61
2018-07-23T02:29:25.941Z,72.04
2018-07-23T02:30:25.944Z,72.64
2018-07-23T02:31:25.936Z,72.64
2018-07-23T02:32:25.910Z,72.94
2018-07-23T02:33:25.900Z,72.91
2018-07-23T02:34:25.889Z,73.05
2018-07-23T02:35:25.889Z,73.32
2018-07-23T02:36:25.879Z,73.14
2018-07-23T02:37:25.869Z,73.11
2018-07-23T02:38:25.846Z,73.25
2018-07-23T02:39:25.833Z,73.14
2018-07-23T02:40:25.821Z,73.25
2018-07-23T02:41:25.824Z,73.14
2018-07-23T02:42:25.801Z,73.14
2018-07-23T02:43:25.792Z,73.45
2018-07-23T02:44:25.780Z,73.65
2018-07-23T02:45:25.766Z,74.15
2018-07-23T02:46:25.777Z,73.85
2018-07-23T02:47:25.749Z,74.05
2018-07-23T02:48:25.736Z,74.35
2018-07-23T02:49:25.721Z,74.39
2018-07-23T02:50:25.711Z,74.90
2018-07-23T02:51:25.702Z,75.10
2018-07-23T02:52:25.729Z,75.43
2018-07-23T02:53:25.681Z,75.43
2018-07-23T02:54:25.667Z,75.74
2018-07-23T02:55:25.654Z,75.43
2018-07-23T02:56:25.645Z,75.94
2018-07-23T02:57:25.634Z,75.94
2018-07-23T02:58:25.638Z,76.14
2018-07-23T02:59:25.617Z,76.14
2018-07-23T03:00:25.601Z,76.78
2018-07-23T03:01:25.592Z,76.07
2018-07-23T03:02:25.585Z,76.14
2018-07-23T03:03:25.582Z,77.19
2018-07-23T03:04:25.557Z,76.48
2018-07-23T03:05:25.547Z,76.68
2018-07-23T03:06:25.537Z,77.08
2018-07-23T03:07:25.526Z,76.68
2018-07-23T03:08:25.524Z,76.58
2018-07-23T03:09:25.502Z,76.98
2018-07-23T03:10:25.492Z,76.88
2018-07-23T03:11:25.479Z,77.39
2018-07-23T03:12:25.489Z,77.42
2018-07-23T03:13:25.458Z,77.39
2018-07-23T03:14:25.449Z,77.42
2018-07-23T03:15:25.434Z,77.53
2018-07-23T03:16:25.432Z,77.22
2018-07-23T03:17:25.414Z,77.22
2018-07-23T03:18:25.422Z,77.73
2018-07-23T03:19:25.389Z,77.32
2018-07-23T03:20:25.380Z,77.22
2018-07-23T03:21:25.384Z,77.42
2018-07-23T03:22:25.385Z,77.42
2018-07-23T03:23:25.346Z,77.19
2018-07-23T03:24:25.336Z,76.92
2018-07-23T03:25:25.322Z,76.98
2018-07-23T03:26:25.310Z,76.88
2018-07-23T03:27:25.314Z,76.92
2018-07-23T03:28:25.312Z,76.48
2018-07-23T03:29:25.278Z,76.98
2018-07-23T03:30:25.268Z,77.19
2018-07-23T03:31:25.256Z,77.08
2018-07-23T03:32:25.247Z,77.12
2018-07-23T03:33:25.257Z,77.22
2018-07-23T03:34:25.233Z,77.19
2018-07-23T03:35:25.209Z,77.12
2018-07-23T03:36:25.200Z,77.12
2018-07-23T03:37:25.186Z,77.02
2018-07-23T03:38:25.188Z,76.92
2018-07-23T03:39:25.165Z,76.42
2018-07-23T03:40:25.154Z,76.72
2018-07-23T03:41:25.145Z,76.72
2018-07-23T03:42:25.135Z,76.51
2018-07-23T03:43:25.170Z,77.02
2018-07-23T03:44:25.124Z,76.82
2018-07-23T03:45:25.099Z,76.82
2018-07-23T03:46:25.088Z,76.82
2018-07-23T03:47:25.079Z,77.42
2018-07-23T03:48:25.071Z,77.02
2018-07-23T03:49:25.070Z,76.98
2018-07-23T03:50:25.051Z,77.42
2018-07-23T03:51:25.034Z,77.19
2018-07-23T03:52:25.021Z,77.32
2018-07-23T03:53:25.012Z,77.39
2018-07-23T03:54:25.044Z,77.32
2018-07-23T03:55:24.991Z,77.42
2018-07-23T03:56:24.980Z,77.53
2018-07-23T03:57:24.970Z,77.32
2018-07-23T03:58:24.956Z,77.42
2018-07-23T03:59:24.966Z,77.39
2018-07-23T04:00:24.933Z,77.42
2018-07-23T04:01:24.925Z,77.69
2018-07-23T04:02:24.913Z,76.82
2018-07-23T04:03:24.913Z,76.98
2018-07-23T04:04:24.892Z,77.39
2018-07-23T04:05:24.895Z,76.68
2018-07-23T04:06:24.868Z,77.39
2018-07-23T04:07:24.873Z,77.39
2018-07-23T04:08:24.851Z,77.19
2018-07-23T04:09:24.837Z,77.39
2018-07-23T04:10:24.837Z,77.49
2018-07-23T04:11:24.814Z,76.88
2018-07-23T04:12:24.802Z,77.39
2018-07-23T04:13:24.793Z,77.19
2018-07-23T04:14:24.780Z,77.19
2018-07-23T04:15:24.781Z,76.88
2018-07-23T04:16:24.772Z,77.19
2018-07-23T04:17:24.759Z,77.28
2018-07-23T04:18:24.734Z,76.88
2018-07-23T04:19:24.726Z,77.19
2018-07-23T04:20:24.711Z,76.88
2018-07-23T04:21:24.726Z,76.58
2018-07-23T04:22:24.689Z,76.95
2018-07-23T04:23:24.680Z,77.04
2018-07-23T04:24:24.668Z,76.95
2018-07-23T04:25:24.658Z,76.84
2018-07-23T04:26:24.643Z,76.44
2018-07-23T04:27:24.654Z,77.35
2018-07-23T04:28:24.625Z,76.95
2018-07-23T04:29:24.612Z,76.44
2018-07-23T04:30:24.598Z,77.04
2018-07-23T04:31:24.589Z,76.64
2018-07-23T04:32:24.578Z,76.75
2018-07-23T04:33:24.580Z,76.75
2018-07-23T04:34:24.556Z,76.95
2018-07-23T04:35:24.558Z,76.54
2018-07-23T04:36:24.534Z,76.54
2018-07-23T04:37:24.523Z,76.95
2018-07-23T04:38:24.511Z,76.84
2018-07-23T04:39:24.510Z,76.84
2018-07-23T04:40:24.487Z,76.95
2018-07-23T04:41:24.476Z,77.04
2018-07-23T04:42:24.572Z,76.91
2018-07-23T04:43:24.459Z,76.95
2018-07-23T04:44:24.469Z,76.54
2018-07-23T04:45:24.435Z,76.75
2018-07-23T04:46:24.424Z,77.04
2018-07-23T04:47:24.409Z,76.61
2018-07-23T04:48:24.399Z,77.01
2018-07-23T04:49:24.438Z,76.31
2018-07-23T04:50:24.388Z,76.61
2018-07-23T04:51:24.366Z,76.31
2018-07-23T04:52:24.356Z,76.40
2018-07-23T04:53:24.343Z,77.11
2018-07-23T04:54:24.333Z,76.54
2018-07-23T04:55:24.339Z,76.34
2018-07-23T04:56:24.316Z,77.15
2018-07-23T04:57:24.301Z,76.84
2018-07-23T04:58:24.292Z,77.35
2018-07-23T04:59:24.281Z,77.04
2018-07-23T05:00:24.285Z,78.16
2018-07-23T05:01:24.259Z,77.35
2018-07-23T05:02:24.247Z,77.15
2018-07-23T05:03:24.238Z,77.15
2018-07-23T05:04:24.239Z,76.84
2018-07-23T05:05:24.230Z,76.95
2018-07-23T05:06:24.201Z,76.34
2018-07-23T05:07:24.191Z,77.25
2018-07-23T05:08:24.179Z,76.64
2018-07-23T05:09:24.185Z,76.44
2018-07-23T05:10:24.182Z,76.34
2018-07-23T05:11:24.150Z,76.84
2018-07-23T05:12:24.140Z,76.44
2018-07-23T05:13:24.128Z,77.04
2018-07-23T05:14:24.115Z,76.40
2018-07-23T05:15:24.104Z,76.44
2018-07-23T05:16:24.107Z,76.91
2018-07-23T05:17:24.084Z,76.51
2018-07-23T05:18:24.085Z,76.40
2018-07-23T05:19:24.061Z,76.40
2018-07-23T05:20:24.049Z,76.37
2018-07-23T05:21:24.040Z,76.10
2018-07-23T05:22:24.030Z,75.67
2018-07-23T05:23:24.033Z,75.16
2018-07-23T05:24:24.050Z,75.36
2018-07-23T05:25:23.995Z,75.56
2018-07-23T05:26:23.988Z,75.46
2018-07-23T05:27:23.987Z,75.70
2018-07-23T05:28:23.976Z,76.31
2018-07-23T05:29:23.969Z,76.91
2018-07-23T05:30:23.944Z,76.31
2018-07-23T05:31:23.932Z,77.01
2018-07-23T05:32:23.920Z,76.51
2018-07-23T05:33:23.911Z,76.07
2018-07-23T05:34:23.913Z,75.96
2018-07-23T05:35:23.888Z,75.76
2018-07-23T05:36:23.876Z,75.36
2018-07-23T05:37:23.883Z,75.13
2018-07-23T05:38:23.877Z,75.09
2018-07-23T05:39:23.845Z,74.18
2018-07-23T05:40:23.833Z,73.75
2018-07-23T05:41:23.825Z,73.55
2018-07-23T05:42:23.827Z,73.04
2018-07-23T05:43:23.803Z,72.94
2018-07-23T05:44:23.792Z,72.57
2018-07-23T05:45:23.781Z,71.63
2018-07-23T05:46:23.770Z,70.09
2018-07-23T05:47:23.776Z,69.46
2018-07-23T05:48:23.748Z,68.62
2018-07-23T05:49:23.738Z,67.88
2018-07-23T05:50:23.728Z,66.68
2018-07-23T05:51:23.714Z,66.95
2018-07-23T05:52:23.703Z,66.75
2018-07-23T05:53:23.709Z,66.35
2018-07-23T05:54:23.699Z,66.75
2018-07-23T05:55:23.673Z,66.12
2018-07-23T05:56:23.666Z,66.19
2018-07-23T05:57:23.653Z,65.28
2018-07-23T05:58:23.643Z,65.28
2018-07-23T05:59:23.650Z,65.59
2018-07-23T06:00:23.617Z,65.28
2018-07-23T06:01:23.609Z,65.25
2018-07-23T06:02:23.598Z,65.45
2018-07-23T06:03:23.589Z,64.95
2018-07-23T06:04:23.576Z,64.42
2018-07-23T06:05:23.576Z,64.03
2018-07-23T06:06:23.570Z,63.69
2018-07-23T06:07:23.544Z,63.59
2018-07-23T06:08:23.534Z,63.39
2018-07-23T06:09:23.533Z,63.39
2018-07-23T06:10:23.524Z,63.26
2018-07-23T06:11:23.498Z,62.86
2018-07-23T06:12:23.488Z,62.96
2018-07-23T06:13:23.491Z,63.06
2018-07-23T06:14:23.479Z,62.86
2018-07-23T06:15:23.482Z,62.37
2018-07-23T06:16:23.443Z,62.53
2018-07-23T06:17:23.479Z,62.53
2018-07-23T06:18:23.423Z,62.23
2018-07-23T06:19:23.411Z,61.71
2018-07-23T06:20:23.400Z,61.21
2018-07-23T06:21:23.408Z,60.88
2018-07-23T06:22:23.379Z,60.91
2018-07-23T06:23:23.367Z,61.21
2018-07-23T06:24:23.360Z,61.24
2018-07-23T06:25:23.345Z,62.13
2018-07-23T06:26:23.338Z,61.83
2018-07-23T06:27:23.337Z,62.43
2018-07-23T06:28:23.313Z,61.93
2018-07-23T06:29:23.306Z,62.56
2018-07-23T06:30:23.343Z,63.39
2018-07-23T06:31:23.282Z,63.19
2018-07-23T06:32:23.288Z,64.09
2018-07-23T06:33:23.260Z,64.09
2018-07-23T06:34:23.250Z,63.79
2018-07-23T06:35:23.237Z,63.79
2018-07-23T06:36:23.227Z,63.36
2018-07-23T06:37:23.230Z,62.86
2018-07-23T06:38:23.208Z,62.63
2018-07-23T06:39:23.197Z,62.93
2018-07-23T06:40:23.187Z,62.63
2018-07-23T06:41:23.173Z,62.23
2018-07-23T06:42:23.180Z,62.34
2018-07-23T06:43:23.173Z,61.83
2018-07-23T06:44:23.142Z,61.90
2018-07-23T06:45:23.130Z,61.41
2018-07-23T06:46:23.119Z,62.43
2018-07-23T06:47:23.113Z,63.06
2018-07-23T06:48:23.111Z,63.36
2018-07-23T06:49:23.088Z,62.83
2018-07-23T06:50:23.077Z,63.03
2018-07-23T06:51:23.064Z,62.01
2018-07-23T06:52:23.056Z,61.80
2018-07-23T06:53:23.087Z,62.30
2018-07-23T06:54:23.037Z,61.57
2018-07-23T06:55:23.021Z,61.57
2018-07-23T06:56:23.009Z,61.68
2018-07-23T06:57:23.055Z,61.65
2018-07-23T06:58:22.990Z,61.15
2018-07-23T06:59:22.994Z,60.55
2018-07-23T07:00:22.967Z,60.15
2018-07-23T07:01:22.956Z,60.62
2018-07-23T07:02:22.945Z,60.42
2018-07-23T07:03:22.960Z,60.22
2018-07-23T07:04:22.941Z,59.09
2018-07-23T07:05:22.916Z,59.30
2018-07-23T07:06:22.949Z,59.30
2018-07-23T07:07:22.895Z,59.32
2018-07-23T07:08:22.884Z,59.30
2018-07-23T07:09:22.888Z,59.19
2018-07-23T07:10:22.862Z,59.04
2018-07-23T07:11:22.850Z,58.31
2018-07-23T07:12:22.838Z,56.79
2018-07-23T07:13:22.869Z,56.87
2018-07-23T07:14:22.850Z,56.02
2018-07-23T07:15:22.807Z,54.50
2018-07-23T07:16:22.794Z,52.00
2018-07-23T07:17:22.783Z,52.84
2018-07-23T07:18:22.775Z,51.32
2018-07-23T07:19:22.763Z,50.66
2018-07-23T07:20:22.771Z,48.71
2018-07-23T07:21:22.743Z,47.60
2018-07-23T07:22:22.732Z,46.44
2018-07-23T07:23:22.722Z,45.21
2018-07-23T07:24:22.712Z,44.29
2018-07-23T07:25:22.712Z,42.38
2018-07-23T07:26:22.702Z,42.33
2018-07-23T07:27:22.680Z,41.63
2018-07-23T07:28:22.671Z,41.33
2018-07-23T07:29:22.659Z,41.31
2018-07-23T07:30:22.646Z,41.11
2018-07-23T07:31:22.659Z,41.14
2018-07-23T07:32:22.624Z,41.64
2018-07-23T07:33:22.614Z,42.24
2018-07-23T07:34:22.610Z,42.14
2018-07-23T07:35:22.595Z,41.72
2018-07-23T07:36:22.585Z,41.43
2018-07-23T07:37:22.585Z,41.71
2018-07-23T07:38:22.621Z,41.19
2018-07-23T07:39:22.551Z,40.21
2018-07-23T07:40:22.540Z,40.19
2018-07-23T07:41:22.529Z,39.69
2018-07-23T07:42:22.545Z,40.37
2018-07-23T07:43:22.507Z,39.80
2018-07-23T07:44:22.498Z,39.78
2018-07-23T07:45:22.490Z,40.33
2018-07-23T07:46:22.495Z,40.84
2018-07-23T07:47:22.469Z,41.43
2018-07-23T07:48:22.478Z,41.53
2018-07-23T07:49:22.448Z,41.31
2018-07-23T07:50:22.439Z,40.13
2018-07-23T07:51:22.425Z,40.21
2018-07-23T07:52:22.414Z,41.31
2018-07-23T07:53:22.409Z,40.03
2018-07-23T07:54:22.409Z,40.23
2018-07-23T07:55:22.386Z,40.23
2018-07-23T07:56:22.375Z,40.01
2018-07-23T07:57:22.368Z,40.33
2018-07-23T07:58:22.354Z,40.03
2018-07-23T07:59:22.370Z,40.25
2018-07-23T08:00:22.330Z,40.84
2018-07-23T08:01:22.322Z,40.25
2018-07-23T08:02:22.310Z,40.82
2018-07-23T08:03:22.301Z,40.92
2018-07-23T08:04:22.289Z,40.62
2018-07-23T08:05:22.292Z,39.92
2018-07-23T08:06:22.267Z,39.62
2018-07-23T08:07:22.258Z,39.82
2018-07-23T08:08:22.250Z,40.03
2018-07-23T08:09:22.261Z,40.23
2018-07-23T08:10:22.229Z,39.82
2018-07-23T08:11:22.219Z,39.70
2018-07-23T08:12:22.207Z,40.39
2018-07-23T08:13:22.199Z,38.72
2018-07-23T08:14:22.185Z,39.53
2018-07-23T08:15:22.192Z,38.45
2018-07-23T08:16:22.168Z,38.78
2018-07-23T08:17:22.173Z,39.78
2018-07-23T08:18:22.149Z,39.56
2018-07-23T08:19:22.135Z,39.86
2018-07-23T08:20:22.139Z,40.17
2018-07-23T08:21:22.132Z,39.29
2018-07-23T08:22:22.104Z,37.70
2018-07-23T08:23:22.096Z,39.07
2018-07-23T08:24:22.085Z,39.17
2018-07-23T08:25:22.089Z,38.98
2018-07-23T08:26:22.065Z,39.27
2018-07-23T08:27:22.054Z,36.91
2018-07-23T08:28:22.042Z,37.60
2018-07-23T08:29:22.035Z,37.60
2018-07-23T08:30:22.038Z,38.07
2018-07-23T08:31:22.013Z,37.98
2018-07-23T08:32:22.008Z,37.19
2018-07-23T08:33:21.993Z,35.23
2018-07-23T08:34:21.983Z,37.09
2018-07-23T08:35:21.983Z,36.99
2018-07-23T08:36:21.981Z,35.60
2018-07-23T08:37:21.957Z,35.89
2018-07-23T08:38:21.940Z,36.11
2018-07-23T08:39:21.931Z,35.91
2018-07-23T08:40:21.921Z,35.24
2018-07-23T08:41:21.911Z,35.16
2018-07-23T08:42:21.912Z,35.05
2018-07-23T08:43:21.889Z,34.83
2018-07-23T08:44:21.877Z,35.24
2018-07-23T08:45:21.869Z,37.19
2018-07-23T08:46:21.881Z,36.21
2018-07-23T08:47:21.854Z,35.62
2018-07-23T08:48:21.842Z,36.60
2018-07-23T08:49:21.835Z,37.27
2018-07-23T08:50:21.817Z,37.07
2018-07-23T08:51:21.845Z,36.88
2018-07-23T08:52:21.814Z,37.58
2018-07-23T08:53:21.789Z,37.09
2018-07-23T08:54:21.791Z,37.29
2018-07-23T08:55:21.771Z,37.48
2018-07-23T08:56:21.757Z,38.07
2018-07-23T08:57:21.763Z,37.46
2018-07-23T08:58:21.736Z,36.49
2018-07-23T08:59:21.747Z,36.68
2018-07-23T09:00:21.737Z,35.99
2018-07-23T09:01:21.707Z,35.70
2018-07-23T09:02:21.739Z,35.97
2018-07-23T09:03:21.687Z,35.11
2018-07-23T09:04:21.680Z,35.11
2018-07-23T09:05:21.668Z,34.64
2018-07-23T09:06:21.679Z,33.17
2018-07-23T09:07:21.649Z,32.57
2018-07-23T09:08:21.647Z,33.56
2018-07-23T09:09:21.633Z,32.76
2018-07-23T09:10:21.625Z,33.74
2018-07-23T09:11:21.609Z,34.70
2018-07-23T09:12:21.612Z,35.50
2018-07-23T09:13:21.589Z,35.19
2018-07-23T09:14:21.591Z,34.31
2018-07-23T09:15:21.572Z,33.72
2018-07-23T09:16:21.556Z,32.35
2018-07-23T09:17:21.570Z,31.67
2018-07-23T09:18:21.539Z,32.53
2018-07-23T09:19:21.569Z,32.43
2018-07-23T09:20:21.520Z,32.14
2018-07-23T09:21:21.507Z,31.54
2018-07-23T09:22:21.498Z,30.85
2018-07-23T09:23:21.491Z,31.34
2018-07-23T09:24:21.482Z,31.54
2018-07-23T09:25:21.485Z,32.03
2018-07-23T09:26:21.475Z,31.55
2018-07-23T09:27:21.507Z,32.42
2018-07-23T09:28:21.452Z,33.29
2018-07-23T09:29:21.429Z,33.98
2018-07-23T09:30:21.420Z,33.69
2018-07-23T09:31:21.431Z,33.38
2018-07-23T09:32:21.403Z,32.79
2018-07-23T09:33:21.393Z,31.90
2018-07-23T09:34:21.380Z,32.01
2018-07-23T09:35:21.373Z,31.52
2018-07-23T09:36:21.369Z,30.64
2018-07-23T09:37:21.391Z,29.46
2018-07-23T09:38:21.346Z,30.44
2018-07-23T09:39:21.333Z,29.08
2018-07-23T09:40:21.324Z,29.87
2018-07-23T09:41:21.315Z,29.58
2018-07-23T09:42:21.304Z,29.77
2018-07-23T09:43:21.306Z,30.67
2018-07-23T09:44:21.282Z,30.57
2018-07-23T09:45:21.275Z,32.12
2018-07-23T09:46:21.266Z,31.54
2018-07-23T09:47:21.257Z,30.36
2018-07-23T09:48:21.258Z,29.95
2018-07-23T09:49:21.233Z,29.07
2018-07-23T09:50:21.230Z,30.74
2018-07-23T09:51:21.215Z,30.52
2018-07-23T09:52:21.203Z,30.72
2018-07-23T09:53:21.207Z,30.54
2018-07-23T09:54:21.458Z,30.74
2018-07-23T09:55:21.177Z,30.54
2018-07-23T09:56:21.166Z,31.73
2018-07-23T09:57:21.154Z,32.01
2018-07-23T09:58:21.161Z,31.42
2018-07-23T09:59:21.151Z,31.42
2018-07-23T10:00:21.125Z,31.23
2018-07-23T10:01:21.116Z,31.81
2018-07-23T10:02:21.108Z,32.20
2018-07-23T10:03:21.115Z,31.51
2018-07-23T10:04:21.099Z,32.29
2018-07-23T10:05:21.077Z,32.40
2018-07-23T10:06:21.069Z,31.42
2018-07-23T10:07:21.059Z,32.61
2018-07-23T10:08:21.047Z,33.10
2018-07-23T10:09:21.053Z,31.34
2018-07-23T10:10:21.027Z,32.42
2018-07-23T10:11:21.034Z,31.44
2018-07-23T10:12:21.007Z,32.50
2018-07-23T10:13:20.998Z,32.12
2018-07-23T10:14:21.002Z,32.70
2018-07-23T10:15:20.982Z,32.78
2018-07-23T10:16:21.012Z,32.56
2018-07-23T10:17:20.960Z,32.06
2018-07-23T10:18:20.956Z,32.46
2018-07-23T10:19:20.945Z,31.77
2018-07-23T10:20:20.940Z,32.16
2018-07-23T10:21:20.924Z,30.59
2018-07-23T10:22:20.941Z,30.68
2018-07-23T10:23:20.910Z,30.68
2018-07-23T10:24:20.897Z,30.58
2018-07-23T10:25:20.891Z,30.58
2018-07-23T10:26:20.883Z,30.69
2018-07-23T10:27:20.873Z,30.71
2018-07-23T10:28:20.876Z,31.51
2018-07-23T10:29:20.854Z,31.31
2018-07-23T10:30:20.844Z,30.82
2018-07-23T10:31:20.834Z,30.72
2018-07-23T10:32:20.843Z,31.70
2018-07-23T10:33:20.813Z,30.90
2018-07-23T10:34:20.806Z,30.51
2018-07-23T10:35:20.794Z,30.12
2018-07-23T10:36:20.785Z,29.03
2018-07-23T10:37:20.779Z,28.44
2018-07-23T10:38:20.782Z,28.14
2018-07-23T10:39:20.760Z,28.72
2018-07-23T10:40:20.761Z,29.31
2018-07-23T10:41:20.739Z,29.32
2018-07-23T10:42:20.729Z,29.61
2018-07-23T10:43:20.720Z,29.71
2018-07-23T10:44:20.726Z,29.93
2018-07-23T10:45:20.702Z,30.12
2018-07-23T10:46:20.691Z,30.51
2018-07-23T10:47:20.684Z,30.40
2018-07-23T10:48:20.686Z,30.59
2018-07-23T10:49:20.677Z,30.79
2018-07-23T10:50:20.659Z,30.69
2018-07-23T10:51:20.647Z,30.40
2018-07-23T10:52:20.640Z,30.69
2018-07-23T10:53:20.626Z,29.41
2018-07-23T10:54:20.635Z,30.59
2018-07-23T10:55:20.609Z,30.69
2018-07-23T10:56:20.600Z,30.38
2018-07-23T10:57:20.593Z,30.58
2018-07-23T10:58:20.583Z,30.58
2018-07-23T10:59:20.574Z,29.69
2018-07-23T11:00:20.576Z,30.66
2018-07-23T11:01:20.556Z,29.49
2018-07-23T11:02:20.543Z,29.59
2018-07-23T11:03:20.535Z,29.88
2018-07-23T11:04:20.601Z,30.57
2018-07-23T11:05:20.530Z,29.49
2018-07-23T11:06:20.503Z,30.37
2018-07-23T11:07:20.499Z,30.57
2018-07-23T11:08:20.485Z,30.57
2018-07-23T11:09:20.478Z,29.49
2018-07-23T11:10:20.483Z,29.80
2018-07-23T11:11:20.480Z,29.60
2018-07-23T11:12:20.448Z,30.77
2018-07-23T11:13:20.437Z,30.37
2018-07-23T11:14:20.426Z,30.18
2018-07-23T11:15:20.436Z,30.08
2018-07-23T11:16:20.410Z,29.47
2018-07-23T11:17:20.415Z,29.18
2018-07-23T11:18:20.392Z,29.57
2018-07-23T11:19:20.441Z,29.38
2018-07-23T11:20:20.369Z,29.08
2018-07-23T11:21:20.377Z,28.20
2018-07-23T11:22:20.351Z,29.49
2018-07-23T11:23:20.339Z,29.20
2018-07-23T11:24:20.331Z,30.08
2018-07-23T11:25:38.976Z,29.69
2018-07-23T11:26:21.396Z,29.39
2018-07-23T11:27:20.303Z,29.79
2018-07-23T11:28:20.294Z,28.79
2018-07-23T11:29:20.294Z,29.67
2018-07-23T11:30:20.271Z,29.96
2018-07-23T11:31:20.279Z,29.47
2018-07-23T11:32:20.280Z,29.56
2018-07-23T11:33:20.244Z,28.11
2018-07-23T11:34:20.236Z,28.40
2018-07-23T11:35:20.224Z,29.08
2018-07-23T11:36:20.217Z,29.49
2018-07-23T11:37:20.203Z,29.59
2018-07-23T11:38:20.225Z,29.00
2018-07-23T11:39:20.225Z,29.10
2018-07-23T11:40:20.176Z,30.65
2018-07-23T11:41:20.170Z,29.96
2018-07-23T11:42:20.160Z,29.95
2018-07-23T11:43:20.161Z,29.46
2018-07-23T11:44:20.140Z,29.17
2018-07-23T11:45:20.189Z,29.57
2018-07-23T11:46:24.982Z,29.08
2018-07-23T11:47:20.128Z,29.38
2018-07-23T11:48:20.101Z,29.07
2018-07-23T11:49:20.094Z,28.97
2018-07-23T11:50:20.083Z,28.00
2018-07-23T11:51:20.073Z,28.58
2018-07-23T11:52:20.078Z,29.85
2018-07-23T11:53:20.110Z,29.27
2018-07-23T11:54:20.047Z,28.88
2018-07-23T11:55:20.037Z,28.00
2018-07-23T11:56:20.029Z,28.09
2018-07-23T11:57:20.044Z,27.41
2018-07-23T11:58:20.012Z,27.62
2018-07-23T11:59:20.004Z,27.73
2018-07-23T12:00:19.995Z,28.14
2018-07-23T12:01:19.987Z,29.31
2018-07-23T12:02:19.973Z,28.23
2018-07-23T12:03:19.978Z,29.69
2018-07-23T12:04:20.055Z,29.10
2018-07-23T12:05:19.948Z,28.99
2018-07-23T12:06:19.940Z,28.99
2018-07-23T12:07:19.931Z,29.00
2018-07-23T12:08:19.933Z,30.37
2018-07-23T12:09:19.909Z,29.39
2018-07-23T12:10:19.900Z,28.82
2018-07-23T12:11:19.891Z,29.50
2018-07-23T12:12:19.885Z,29.50
2018-07-23T12:13:19.889Z,29.99
2018-07-23T12:14:19.864Z,29.10
2018-07-23T12:15:19.865Z,29.49
2018-07-23T12:16:19.845Z,29.10
2018-07-23T12:17:19.967Z,29.20
2018-07-23T12:18:19.829Z,28.92
2018-07-23T12:19:19.837Z,29.50
2018-07-23T12:20:19.822Z,29.10
2018-07-23T12:21:19.800Z,29.39
2018-07-23T12:22:19.791Z,29.10
2018-07-23T12:23:19.782Z,29.59
2018-07-23T12:24:19.773Z,28.44
2018-07-23T12:25:19.775Z,29.04
2018-07-23T12:26:19.753Z,30.62
2018-07-23T12:27:19.744Z,29.53
2018-07-23T12:28:19.733Z,29.24
2018-07-23T12:29:19.727Z,29.80
2018-07-23T12:30:19.731Z,29.59
2018-07-23T12:31:19.707Z,28.20
2018-07-23T12:32:19.738Z,27.80
2018-07-23T12:33:19.692Z,28.39
2018-07-23T12:34:19.681Z,28.57
2018-07-23T12:35:19.687Z,28.28
2018-07-23T12:36:19.662Z,28.18
2018-07-23T12:37:19.653Z,29.14
2018-07-23T12:38:19.647Z,28.25
2018-07-23T12:39:19.723Z,29.22
2018-07-23T12:40:19.625Z,29.13
2018-07-23T12:41:19.628Z,29.43
2018-07-23T12:42:19.605Z,29.04
2018-07-23T12:43:19.616Z,28.93
2018-07-23T12:44:19.589Z,28.26
2018-07-23T12:45:19.580Z,29.04
2018-07-23T12:46:19.572Z,29.53
2018-07-23T12:47:19.616Z,29.24
2018-07-23T12:48:19.549Z,29.43
2018-07-23T12:49:19.554Z,29.04
2018-07-23T12:50:19.559Z,29.04
2018-07-23T12:51:19.528Z,29.14
2018-07-23T12:52:19.516Z,28.05